McCutchenville, Ohio
Current Conditions -  °F | °C
As of 1:53 PM on Thursday 25 Dec 2014 (Local Time) from KFDY Reporting Station
Overcast Overcast  
Wind Chill: 30°   Ceiling: 2100
Heat Index: 39°   Visibility: 10mi
Dew Point: 31°   Wind: 18mph
Humidity: 73%   Direction: 230°SW
Pressure: 30.02"   Gusts: 29mph
Location:  40.99°N, 83.26°W
Report Text: KFDY 251853Z AUTO 23016G25KT 10SM OVC021 04/M01 A3002 RMK AO2 SLP168 T00391006
Loading
Personal Weather Stations






























Interactive Weather Map New forecast layout! Learn more

10-Day Weather Forecast

Advertisements
Track Severe Weather on mobile